This is the latest recevied weather packets stored in our database for station/object K1RFS. If no packets are shown the sender has not sent any weather packets the latest 10 day(s).
| Time | Temp. | Humidity | Pressure | Rain* | Wind** | Luminosity | Snow |
|---|---|---|---|---|---|---|---|
| 1788222411 | 16.67° C | 74% | 1006.4 hPa | 1.78 mm | - | 17 W/m² | - |
| 1788222124 | 16.67° C | 78% | 1006.4 hPa | 1.78 mm | - | 16 W/m² | - |
| 1788221802 | 16.67° C | 80% | 1006.4 hPa | 0 mm | - | 14 W/m² | - |
| 1788221497 | 16.67° C | 78% | 1006.3 hPa | 0 mm | - | 13 W/m² | - |
| 1788221192 | 16.11° C | 82% | 1006.5 hPa | 0 mm | - | 12 W/m² | - |
| 1788220888 | 16.11° C | 81% | 1006.5 hPa | 0 mm | - | 11 W/m² | - |
| 1788220587 | 16.67° C | 79% | 1006.1 hPa | 0 mm | - | 9 W/m² | - |
| 1788220282 | 16.11° C | 79% | 1005.7 hPa | 0 mm | - | 8 W/m² | - |
| 1788219981 | 16.11° C | 85% | 1005.8 hPa | 1.27 mm | - | 7 W/m² | - |
| 1788219677 | 15.56° C | 88% | 1005.5 hPa | 1.27 mm | - | 6 W/m² | - |
| 1788219372 | 15.56° C | 88% | 1005 hPa | 3.05 mm | - | 6 W/m² | - |
| 1788219068 | 15.56° C | 87% | 1005 hPa | 3.05 mm | - | 5 W/m² | - |
| 1788218763 | 15.56° C | 86% | 1005 hPa | 1.27 mm | - | 5 W/m² | - |
| 1788218459 | 15.56° C | 86% | 1004.8 hPa | 1.78 mm | - | 5 W/m² | - |
| 1788218155 | 15.56° C | 86% | 1004.8 hPa | 3.05 mm | - | 5 W/m² | - |
| 1788217850 | 15° C | 88% | 1004.5 hPa | 11.94 mm | - | 5 W/m² | - |
| 1788217545 | 15° C | 89% | 1004.6 hPa | 42.67 mm | - | 5 W/m² | - |
| 1788217240 | 14.44° C | 89% | 1004.7 hPa | 50.29 mm | - | 3 W/m² | - |
| 1788216935 | 14.44° C | 90% | 1005.2 hPa | 47.5 mm | - | 3 W/m² | - |
| 1788216630 | 14.44° C | 87% | 1004.8 hPa | 30.73 mm | - | 3 W/m² | - |
| 1788216325 | 16.67° C | 80% | 1003.6 hPa | 8.89 mm | - | 4 W/m² | - |
| 1788216022 | 21.67° C | 55% | 1003.7 hPa | 0 mm | - | 3 W/m² | - |
| 1788215715 | 23.89° C | 43% | 1003.4 hPa | 0 mm | - | 3 W/m² | - |
| 1788215412 | 23.89° C | 43% | 1002.8 hPa | 0 mm | - | 4 W/m² | - |
| 1788215108 | 23.89° C | 43% | 1002.3 hPa | 0 mm | - | 6 W/m² | - |
* Rain latest hour (hover to see other rain measurements)
** Current wind speed in m/s (hover to see current wind gust speed)